Airfield :
LOGIN :

Register | Disclaimer

   EN    FR    IT 

 










Legend :    VFR   Marginal VFR   IFR   Intensive IFR   Very Intensive IFR
Visi :
Ceiling :
>= 8 km
>= 3000ft
5 to 8 km
1000 to 3000 ft
1500m to 5 km
500 to 1000 ft
800 to 1500m
200 to 500 ft
< 800m
< 200 ft
Symbols :   Thunderstorms  Fog  Heavy snow  Heavy precipitations  Wind > 20 kt
SIGMETs :     Misc.  Thunderstorms  Icing  Turbulence  Mountain Waves  Volcanic Ashes






- Airport Elevation : 144 ft
- IATA code : PGF


LFMP - Perpignan

CURRENT METAR :
  • 111530Z AUTO 07007KT 010V120 CAVOK 29/23 Q1014 TEMPO BKN040TCU

EXPIRED METARs :
  • 111500Z AUTO 08007KT 040V100 9999 ///TCU 29/22 Q1014 NOSIG
  • 111430Z AUTO 08007KT CAVOK 27/21 Q1015 TEMPO BKN040TCU
  • 111400Z AUTO 09008KT 050V150 9999 FEW022 29/21 Q1015 TEMPO BKN040TCU
  • 111330Z AUTO 10009KT 070V150 9999 FEW024 30/22 Q1015 TEMPO BKN040TCU
  • 111300Z AUTO 10010KT 9999 FEW026 29/22 Q1015 TEMPO BKN040TCU

TAF TAF LFMP
Valid from the 11 at 15:00 until the 12 at 15:00 UTC


111400Z 1115/1215 VRB05KT 9999 BKN025
TEMPO 1115/1118 BKN040TCU
BECMG 1118/1120 1200 BR BKN008
TEMPO 1120/1207 0200 RA FG VV///
BECMG 1207/1209 NSC
BECMG 1210/1213 14015KT
TEMPO 1213/1215 VRB20G35KT SHRA BKN040TCU
ATIS : +33 4 68 63 75 12



MET'MAP, your aeronautical weather chart ! - Copyright ORBIFLY December 2007 - Disclaimer

ORBIFLY MET'MAP TEAM :

Programming & Development : Alexandra Zaïnal
Concept & original design : Baudouin d'Aumeries
Assistance for programming : Marc-Olivier Méhu
Technical & hardware support : Manuel Goepfert

Contact : metmap@orbifly.com




SOURCES & CREDITS :

   NOAA